sensor_id;sensor_type;location;lat;lon;timestamp;temperature;humidity
13694;DHT22;6919;52.344;14.518;2022-12-29T00:00:26;8.30;1.00
13694;DHT22;6919;52.344;14.518;2022-12-29T00:02:56;8.20;99.90
13694;DHT22;6919;52.344;14.518;2022-12-29T00:05:24;8.20;1.00
13694;DHT22;6919;52.344;14.518;2022-12-29T00:07:52;8.20;1.00
13694;DHT22;6919;52.344;14.518;2022-12-29T00:10:21;8.10;1.00
13694;DHT22;6919;52.344;14.518;2022-12-29T00:12:49;8.00;99.90
13694;DHT22;6919;52.344;14.518;2022-12-29T00:15:36;8.00;1.00
13694;DHT22;6919;52.344;14.518;2022-12-29T00:18:08;7.90;1.00
13694;DHT22;6919;52.344;14.518;2022-12-29T00:20:37;7.90;1.00
13694;DHT22;6919;52.344;14.518;2022-12-29T00:23:23;7.90;1.00
13694;DHT22;6919;52.344;14.518;2022-12-29T00:26:13;7.90;1.00
13694;DHT22;6919;52.344;14.518;2022-12-29T00:29:00;7.90;1.00
13694;DHT22;6919;52.344;14.518;2022-12-29T00:31:46;7.90;1.00
13694;DHT22;6919;52.344;14.518;2022-12-29T00:34:33;7.80;1.00
13694;DHT22;6919;52.344;14.518;2022-12-29T00:37:19;7.80;1.00
13694;DHT22;6919;52.344;14.518;2022-12-29T00:40:08;7.80;1.00
13694;DHT22;6919;52.344;14.518;2022-12-29T00:42:54;7.80;1.00
13694;DHT22;6919;52.344;14.518;2022-12-29T00:45:40;7.70;1.00
13694;DHT22;6919;52.344;14.518;2022-12-29T00:48:09;7.60;1.00
13694;DHT22;6919;52.344;14.518;2022-12-29T00:50:39;7.60;1.00
13694;DHT22;6919;52.344;14.518;2022-12-29T00:53:06;7.50;76.40
13694;DHT22;6919;52.344;14.518;2022-12-29T00:55:36;7.60;99.90
13694;DHT22;6919;52.344;14.518;2022-12-29T00:58:05;7.50;99.90
13694;DHT22;6919;52.344;14.518;2022-12-29T01:00:33;7.40;99.90
13694;DHT22;6919;52.344;14.518;2022-12-29T01:03:02;7.50;99.90
13694;DHT22;6919;52.344;14.518;2022-12-29T01:05:30;7.50;99.90
13694;DHT22;6919;52.344;14.518;2022-12-29T01:08:00;7.50;99.90
13694;DHT22;6919;52.344;14.518;2022-12-29T01:10:29;7.50;99.90
13694;DHT22;6919;52.344;14.518;2022-12-29T01:12:56;7.40;99.90
13694;DHT22;6919;52.344;14.518;2022-12-29T01:15:24;7.40;99.90
13694;DHT22;6919;52.344;14.518;2022-12-29T01:17:52;7.50;99.90
13694;DHT22;6919;52.344;14.518;2022-12-29T01:20:20;7.40;99.90
13694;DHT22;6919;52.344;14.518;2022-12-29T01:22:49;7.50;99.90
13694;DHT22;6919;52.344;14.518;2022-12-29T01:25:18;7.40;99.90
13694;DHT22;6919;52.344;14.518;2022-12-29T01:27:46;7.40;99.90
13694;DHT22;6919;52.344;14.518;2022-12-29T01:30:15;7.50;99.90
13694;DHT22;6919;52.344;14.518;2022-12-29T01:32:44;7.40;99.90
13694;DHT22;6919;52.344;14.518;2022-12-29T01:35:12;7.40;99.90
13694;DHT22;6919;52.344;14.518;2022-12-29T01:37:40;7.40;99.90
13694;DHT22;6919;52.344;14.518;2022-12-29T01:40:10;7.40;99.90
13694;DHT22;6919;52.344;14.518;2022-12-29T01:42:41;7.30;99.90
13694;DHT22;6919;52.344;14.518;2022-12-29T01:45:10;7.40;99.90
13694;DHT22;6919;52.344;14.518;2022-12-29T01:47:43;7.40;99.90
13694;DHT22;6919;52.344;14.518;2022-12-29T01:50:16;7.40;99.90
13694;DHT22;6919;52.344;14.518;2022-12-29T01:52:51;7.40;99.90
13694;DHT22;6919;52.344;14.518;2022-12-29T01:55:24;7.50;99.90
13694;DHT22;6919;52.344;14.518;2022-12-29T01:57:59;7.50;99.90
13694;DHT22;6919;52.344;14.518;2022-12-29T02:00:31;7.50;99.90
13694;DHT22;6919;52.344;14.518;2022-12-29T02:03:00;7.50;99.90
13694;DHT22;6919;52.344;14.518;2022-12-29T02:05:33;7.50;99.90
13694;DHT22;6919;52.344;14.518;2022-12-29T02:08:06;7.60;99.90
13694;DHT22;6919;52.344;14.518;2022-12-29T02:10:36;7.60;99.90
13694;DHT22;6919;52.344;14.518;2022-12-29T02:13:06;7.60;99.90
13694;DHT22;6919;52.344;14.518;2022-12-29T02:15:46;7.60;99.90
13694;DHT22;6919;52.344;14.518;2022-12-29T02:18:29;7.60;99.90
13694;DHT22;6919;52.344;14.518;2022-12-29T02:25:00;7.70;99.90
13694;DHT22;6919;52.344;14.518;2022-12-29T02:28:03;7.70;99.90
13694;DHT22;6919;52.344;14.518;2022-12-29T02:31:00;7.70;99.90
13694;DHT22;6919;52.344;14.518;2022-12-29T02:33:55;7.70;99.90
13694;DHT22;6919;52.344;14.518;2022-12-29T02:36:40;7.70;99.90
13694;DHT22;6919;52.344;14.518;2022-12-29T02:39:21;7.80;99.90
13694;DHT22;6919;52.344;14.518;2022-12-29T02:42:00;7.80;99.90
13694;DHT22;6919;52.344;14.518;2022-12-29T02:44:46;7.80;99.90
13694;DHT22;6919;52.344;14.518;2022-12-29T02:47:28;7.80;99.90
13694;DHT22;6919;52.344;14.518;2022-12-29T02:50:06;7.80;99.90
13694;DHT22;6919;52.344;14.518;2022-12-29T02:52:50;7.90;99.90
13694;DHT22;6919;52.344;14.518;2022-12-29T02:55:24;7.90;99.90
13694;DHT22;6919;52.344;14.518;2022-12-29T02:58:13;8.00;99.90
13694;DHT22;6919;52.344;14.518;2022-12-29T03:00:55;7.90;99.90
13694;DHT22;6919;52.344;14.518;2022-12-29T03:03:45;7.90;99.90
13694;DHT22;6919;52.344;14.518;2022-12-29T03:06:33;7.90;99.90
13694;DHT22;6919;52.344;14.518;2022-12-29T03:09:26;7.90;99.90
13694;DHT22;6919;52.344;14.518;2022-12-29T03:12:14;7.90;99.90
13694;DHT22;6919;52.344;14.518;2022-12-29T03:14:59;7.90;99.90
13694;DHT22;6919;52.344;14.518;2022-12-29T03:17:55;8.00;99.90
13694;DHT22;6919;52.344;14.518;2022-12-29T03:20:36;8.00;99.90
13694;DHT22;6919;52.344;14.518;2022-12-29T03:23:07;8.10;99.90
13694;DHT22;6919;52.344;14.518;2022-12-29T03:25:39;8.10;99.90
13694;DHT22;6919;52.344;14.518;2022-12-29T03:28:13;8.10;99.90
13694;DHT22;6919;52.344;14.518;2022-12-29T03:30:46;8.10;99.90
13694;DHT22;6919;52.344;14.518;2022-12-29T03:33:17;8.10;99.90
13694;DHT22;6919;52.344;14.518;2022-12-29T03:35:52;8.10;99.90
13694;DHT22;6919;52.344;14.518;2022-12-29T03:38:33;8.20;99.90
13694;DHT22;6919;52.344;14.518;2022-12-29T03:41:07;8.20;99.90
13694;DHT22;6919;52.344;14.518;2022-12-29T03:43:38;8.20;99.90
13694;DHT22;6919;52.344;14.518;2022-12-29T03:46:06;8.20;99.90
13694;DHT22;6919;52.344;14.518;2022-12-29T03:48:35;8.20;99.90
13694;DHT22;6919;52.344;14.518;2022-12-29T03:51:05;8.20;99.90
13694;DHT22;6919;52.344;14.518;2022-12-29T03:53:33;8.10;99.90
13694;DHT22;6919;52.344;14.518;2022-12-29T03:56:01;8.20;99.90
13694;DHT22;6919;52.344;14.518;2022-12-29T03:58:29;8.20;99.90
13694;DHT22;6919;52.344;14.518;2022-12-29T04:00:58;8.10;99.90
13694;DHT22;6919;52.344;14.518;2022-12-29T04:03:26;8.10;99.90
13694;DHT22;6919;52.344;14.518;2022-12-29T04:05:54;8.20;99.90
13694;DHT22;6919;52.344;14.518;2022-12-29T04:08:24;8.10;99.90
13694;DHT22;6919;52.344;14.518;2022-12-29T04:10:52;8.10;99.90
13694;DHT22;6919;52.344;14.518;2022-12-29T04:13:20;8.10;99.90
13694;DHT22;6919;52.344;14.518;2022-12-29T04:15:51;8.10;99.90
13694;DHT22;6919;52.344;14.518;2022-12-29T04:18:19;8.20;99.90
13694;DHT22;6919;52.344;14.518;2022-12-29T04:20:47;8.20;99.90
13694;DHT22;6919;52.344;14.518;2022-12-29T04:23:32;8.20;99.90
13694;DHT22;6919;52.344;14.518;2022-12-29T04:26:03;8.20;99.90
13694;DHT22;6919;52.344;14.518;2022-12-29T04:28:33;8.20;99.90
13694;DHT22;6919;52.344;14.518;2022-12-29T04:31:02;8.30;99.90
13694;DHT22;6919;52.344;14.518;2022-12-29T04:33:31;8.40;99.90
13694;DHT22;6919;52.344;14.518;2022-12-29T04:35:59;8.30;99.90
13694;DHT22;6919;52.344;14.518;2022-12-29T04:38:27;8.40;99.90
13694;DHT22;6919;52.344;14.518;2022-12-29T04:40:59;8.40;99.90
13694;DHT22;6919;52.344;14.518;2022-12-29T04:43:28;8.50;99.90
13694;DHT22;6919;52.344;14.518;2022-12-29T04:45:56;8.50;99.90
13694;DHT22;6919;52.344;14.518;2022-12-29T04:48:25;8.60;99.90
13694;DHT22;6919;52.344;14.518;2022-12-29T04:50:53;8.60;99.90
13694;DHT22;6919;52.344;14.518;2022-12-29T04:53:21;8.60;99.90
13694;DHT22;6919;52.344;14.518;2022-12-29T04:55:51;8.60;99.90
13694;DHT22;6919;52.344;14.518;2022-12-29T04:58:20;8.60;99.90
13694;DHT22;6919;52.344;14.518;2022-12-29T05:00:50;8.70;99.90
13694;DHT22;6919;52.344;14.518;2022-12-29T05:03:19;8.70;99.90
13694;DHT22;6919;52.344;14.518;2022-12-29T05:05:47;8.70;99.90
13694;DHT22;6919;52.344;14.518;2022-12-29T05:08:15;8.70;99.90
13694;DHT22;6919;52.344;14.518;2022-12-29T05:10:51;8.80;99.90
13694;DHT22;6919;52.344;14.518;2022-12-29T05:13:20;8.80;99.90
13694;DHT22;6919;52.344;14.518;2022-12-29T05:15:50;8.80;99.90
13694;DHT22;6919;52.344;14.518;2022-12-29T05:18:19;8.70;99.90
13694;DHT22;6919;52.344;14.518;2022-12-29T05:20:48;8.80;99.90
13694;DHT22;6919;52.344;14.518;2022-12-29T05:23:16;8.70;99.90
13694;DHT22;6919;52.344;14.518;2022-12-29T05:25:44;8.80;99.90
13694;DHT22;6919;52.344;14.518;2022-12-29T05:28:14;8.80;99.90
13694;DHT22;6919;52.344;14.518;2022-12-29T05:30:44;8.80;99.90
13694;DHT22;6919;52.344;14.518;2022-12-29T05:33:16;8.90;99.90
13694;DHT22;6919;52.344;14.518;2022-12-29T05:35:45;8.90;99.90
13694;DHT22;6919;52.344;14.518;2022-12-29T05:38:13;9.00;99.90
13694;DHT22;6919;52.344;14.518;2022-12-29T05:40:44;9.10;99.90
13694;DHT22;6919;52.344;14.518;2022-12-29T05:43:14;9.10;99.90
13694;DHT22;6919;52.344;14.518;2022-12-29T05:45:44;9.00;99.90
13694;DHT22;6919;52.344;14.518;2022-12-29T05:48:16;9.00;99.90
13694;DHT22;6919;52.344;14.518;2022-12-29T05:50:47;9.00;99.90
13694;DHT22;6919;52.344;14.518;2022-12-29T05:53:15;9.00;99.90
13694;DHT22;6919;52.344;14.518;2022-12-29T05:55:44;9.10;99.90
13694;DHT22;6919;52.344;14.518;2022-12-29T05:58:16;9.10;99.90
13694;DHT22;6919;52.344;14.518;2022-12-29T06:00:45;9.10;99.90
13694;DHT22;6919;52.344;14.518;2022-12-29T06:03:13;9.10;99.90
13694;DHT22;6919;52.344;14.518;2022-12-29T06:05:44;9.10;99.90
13694;DHT22;6919;52.344;14.518;2022-12-29T06:08:12;9.00;99.90
13694;DHT22;6919;52.344;14.518;2022-12-29T06:10:40;9.10;99.90
13694;DHT22;6919;52.344;14.518;2022-12-29T06:13:08;9.10;99.90
13694;DHT22;6919;52.344;14.518;2022-12-29T06:15:38;9.10;99.90
13694;DHT22;6919;52.344;14.518;2022-12-29T06:18:06;9.00;99.90
13694;DHT22;6919;52.344;14.518;2022-12-29T06:20:42;9.10;99.90
13694;DHT22;6919;52.344;14.518;2022-12-29T06:23:10;9.10;99.90
13694;DHT22;6919;52.344;14.518;2022-12-29T06:25:40;9.10;99.90
13694;DHT22;6919;52.344;14.518;2022-12-29T06:28:08;9.20;99.90
13694;DHT22;6919;52.344;14.518;2022-12-29T06:30:38;9.10;99.90
13694;DHT22;6919;52.344;14.518;2022-12-29T06:33:06;9.20;99.90
13694;DHT22;6919;52.344;14.518;2022-12-29T06:35:35;9.10;99.90
13694;DHT22;6919;52.344;14.518;2022-12-29T06:38:03;9.10;99.90
13694;DHT22;6919;52.344;14.518;2022-12-29T06:40:32;9.10;99.90
13694;DHT22;6919;52.344;14.518;2022-12-29T06:43:01;9.10;99.90
13694;DHT22;6919;52.344;14.518;2022-12-29T06:45:29;9.10;99.90
13694;DHT22;6919;52.344;14.518;2022-12-29T06:47:59;9.20;99.90
13694;DHT22;6919;52.344;14.518;2022-12-29T06:50:27;9.20;99.90
13694;DHT22;6919;52.344;14.518;2022-12-29T06:52:55;9.10;99.90
13694;DHT22;6919;52.344;14.518;2022-12-29T06:55:23;9.20;99.90
13694;DHT22;6919;52.344;14.518;2022-12-29T06:57:54;9.20;99.90
13694;DHT22;6919;52.344;14.518;2022-12-29T07:00:22;9.10;99.90
13694;DHT22;6919;52.344;14.518;2022-12-29T07:02:51;9.20;99.90
13694;DHT22;6919;52.344;14.518;2022-12-29T07:05:24;9.20;99.90
13694;DHT22;6919;52.344;14.518;2022-12-29T07:07:54;9.20;99.90
13694;DHT22;6919;52.344;14.518;2022-12-29T07:10:23;9.30;99.90
13694;DHT22;6919;52.344;14.518;2022-12-29T07:12:51;9.20;99.90
13694;DHT22;6919;52.344;14.518;2022-12-29T07:15:20;9.30;99.90
13694;DHT22;6919;52.344;14.518;2022-12-29T07:17:48;9.40;99.90
13694;DHT22;6919;52.344;14.518;2022-12-29T07:20:17;9.50;99.90
13694;DHT22;6919;52.344;14.518;2022-12-29T07:22:53;9.50;99.90
13694;DHT22;6919;52.344;14.518;2022-12-29T07:25:22;9.60;99.90
13694;DHT22;6919;52.344;14.518;2022-12-29T07:27:50;9.60;99.90
13694;DHT22;6919;52.344;14.518;2022-12-29T07:30:18;9.70;99.90
13694;DHT22;6919;52.344;14.518;2022-12-29T07:32:47;9.70;99.90
13694;DHT22;6919;52.344;14.518;2022-12-29T07:35:15;9.80;99.90
13694;DHT22;6919;52.344;14.518;2022-12-29T07:37:44;9.80;99.90
13694;DHT22;6919;52.344;14.518;2022-12-29T07:40:14;9.70;99.90
13694;DHT22;6919;52.344;14.518;2022-12-29T07:42:42;9.80;99.90
13694;DHT22;6919;52.344;14.518;2022-12-29T07:45:10;9.80;99.90
13694;DHT22;6919;52.344;14.518;2022-12-29T07:47:39;9.80;99.90
13694;DHT22;6919;52.344;14.518;2022-12-29T07:50:07;9.80;99.90
13694;DHT22;6919;52.344;14.518;2022-12-29T07:52:35;9.70;99.90
13694;DHT22;6919;52.344;14.518;2022-12-29T07:55:04;9.70;99.90
13694;DHT22;6919;52.344;14.518;2022-12-29T07:57:35;9.70;99.90
13694;DHT22;6919;52.344;14.518;2022-12-29T08:00:03;9.70;99.90
13694;DHT22;6919;52.344;14.518;2022-12-29T08:02:32;9.80;99.90
13694;DHT22;6919;52.344;14.518;2022-12-29T08:05:01;9.80;99.90
13694;DHT22;6919;52.344;14.518;2022-12-29T08:07:29;9.80;99.90
13694;DHT22;6919;52.344;14.518;2022-12-29T08:09:57;9.70;99.90
13694;DHT22;6919;52.344;14.518;2022-12-29T08:12:25;9.80;99.90
13694;DHT22;6919;52.344;14.518;2022-12-29T08:14:55;9.70;99.90
13694;DHT22;6919;52.344;14.518;2022-12-29T08:17:23;9.70;99.90
13694;DHT22;6919;52.344;14.518;2022-12-29T08:19:52;9.60;99.90
13694;DHT22;6919;52.344;14.518;2022-12-29T08:22:20;9.70;99.90
13694;DHT22;6919;52.344;14.518;2022-12-29T08:24:49;9.80;99.90
13694;DHT22;6919;52.344;14.518;2022-12-29T08:27:18;9.80;99.90
13694;DHT22;6919;52.344;14.518;2022-12-29T08:29:47;9.90;99.90
13694;DHT22;6919;52.344;14.518;2022-12-29T08:32:17;10.00;99.90
13694;DHT22;6919;52.344;14.518;2022-12-29T08:34:46;10.00;99.90
13694;DHT22;6919;52.344;14.518;2022-12-29T08:37:14;9.90;99.90
13694;DHT22;6919;52.344;14.518;2022-12-29T08:39:42;10.00;99.90
13694;DHT22;6919;52.344;14.518;2022-12-29T08:42:10;10.10;99.90
13694;DHT22;6919;52.344;14.518;2022-12-29T08:44:39;10.10;99.90
13694;DHT22;6919;52.344;14.518;2022-12-29T08:47:09;10.20;99.90
13694;DHT22;6919;52.344;14.518;2022-12-29T08:49:39;10.30;99.90
13694;DHT22;6919;52.344;14.518;2022-12-29T08:52:08;10.40;99.90
13694;DHT22;6919;52.344;14.518;2022-12-29T08:54:36;10.50;99.90
13694;DHT22;6919;52.344;14.518;2022-12-29T08:57:04;10.50;99.90
13694;DHT22;6919;52.344;14.518;2022-12-29T08:59:32;10.60;99.90
13694;DHT22;6919;52.344;14.518;2022-12-29T09:02:01;10.60;99.90
13694;DHT22;6919;52.344;14.518;2022-12-29T09:04:29;10.70;99.90
13694;DHT22;6919;52.344;14.518;2022-12-29T09:06:59;10.80;99.90
13694;DHT22;6919;52.344;14.518;2022-12-29T09:09:28;10.70;99.90
13694;DHT22;6919;52.344;14.518;2022-12-29T09:11:56;10.80;99.90
13694;DHT22;6919;52.344;14.518;2022-12-29T09:14:24;10.80;99.90
13694;DHT22;6919;52.344;14.518;2022-12-29T09:16:53;10.80;99.90
13694;DHT22;6919;52.344;14.518;2022-12-29T09:19:39;10.90;99.90
13694;DHT22;6919;52.344;14.518;2022-12-29T09:22:08;10.90;99.90
13694;DHT22;6919;52.344;14.518;2022-12-29T09:24:37;10.90;99.90
13694;DHT22;6919;52.344;14.518;2022-12-29T09:27:05;11.00;99.90
13694;DHT22;6919;52.344;14.518;2022-12-29T09:29:33;11.10;99.90
13694;DHT22;6919;52.344;14.518;2022-12-29T09:32:02;11.20;99.90
13694;DHT22;6919;52.344;14.518;2022-12-29T09:34:33;11.30;99.90
13694;DHT22;6919;52.344;14.518;2022-12-29T09:37:02;11.30;99.90
13694;DHT22;6919;52.344;14.518;2022-12-29T09:39:31;11.30;99.90
13694;DHT22;6919;52.344;14.518;2022-12-29T09:42:03;11.40;99.90
13694;DHT22;6919;52.344;14.518;2022-12-29T09:44:48;11.40;99.90
13694;DHT22;6919;52.344;14.518;2022-12-29T09:47:25;11.40;99.90
13694;DHT22;6919;52.344;14.518;2022-12-29T09:49:57;11.20;99.90
13694;DHT22;6919;52.344;14.518;2022-12-29T09:52:32;11.20;99.90
13694;DHT22;6919;52.344;14.518;2022-12-29T09:55:10;11.10;99.90
13694;DHT22;6919;52.344;14.518;2022-12-29T09:57:46;11.30;99.90
13694;DHT22;6919;52.344;14.518;2022-12-29T10:00:21;11.40;99.90
13694;DHT22;6919;52.344;14.518;2022-12-29T10:02:58;11.50;99.90
13694;DHT22;6919;52.344;14.518;2022-12-29T10:05:38;11.50;99.90
13694;DHT22;6919;52.344;14.518;2022-12-29T10:08:22;11.50;99.90
13694;DHT22;6919;52.344;14.518;2022-12-29T10:11:09;11.60;99.90
13694;DHT22;6919;52.344;14.518;2022-12-29T10:14:00;11.70;99.90
13694;DHT22;6919;52.344;14.518;2022-12-29T10:16:47;11.70;99.90
13694;DHT22;6919;52.344;14.518;2022-12-29T10:19:33;11.80;99.90
13694;DHT22;6919;52.344;14.518;2022-12-29T10:22:17;11.80;99.90
13694;DHT22;6919;52.344;14.518;2022-12-29T10:24:56;11.90;99.90
13694;DHT22;6919;52.344;14.518;2022-12-29T10:27:26;12.00;99.90
13694;DHT22;6919;52.344;14.518;2022-12-29T10:29:56;12.10;99.90
13694;DHT22;6919;52.344;14.518;2022-12-29T10:32:30;12.10;99.90
13694;DHT22;6919;52.344;14.518;2022-12-29T10:35:06;12.20;99.90
13694;DHT22;6919;52.344;14.518;2022-12-29T10:37:42;12.20;99.90
13694;DHT22;6919;52.344;14.518;2022-12-29T10:40:22;12.20;99.90
13694;DHT22;6919;52.344;14.518;2022-12-29T10:42:57;12.20;99.90
13694;DHT22;6919;52.344;14.518;2022-12-29T10:45:29;12.30;99.90
13694;DHT22;6919;52.344;14.518;2022-12-29T10:48:03;12.40;99.90
13694;DHT22;6919;52.344;14.518;2022-12-29T10:50:34;12.40;99.90
13694;DHT22;6919;52.344;14.518;2022-12-29T10:53:16;12.50;99.90
13694;DHT22;6919;52.344;14.518;2022-12-29T10:55:49;12.50;99.90
13694;DHT22;6919;52.344;14.518;2022-12-29T10:58:21;12.60;99.90
13694;DHT22;6919;52.344;14.518;2022-12-29T11:00:53;12.60;99.90
13694;DHT22;6919;52.344;14.518;2022-12-29T11:03:50;12.50;99.90
13694;DHT22;6919;52.344;14.518;2022-12-29T11:06:30;12.70;99.90
13694;DHT22;6919;52.344;14.518;2022-12-29T11:09:02;12.70;99.90
13694;DHT22;6919;52.344;14.518;2022-12-29T11:11:40;12.70;99.90
13694;DHT22;6919;52.344;14.518;2022-12-29T11:14:13;12.70;99.90
13694;DHT22;6919;52.344;14.518;2022-12-29T11:16:56;12.70;99.90
13694;DHT22;6919;52.344;14.518;2022-12-29T11:19:28;12.70;99.90
13694;DHT22;6919;52.344;14.518;2022-12-29T11:22:13;12.70;99.90
13694;DHT22;6919;52.344;14.518;2022-12-29T11:24:49;12.70;99.90
13694;DHT22;6919;52.344;14.518;2022-12-29T11:27:21;12.70;99.90
13694;DHT22;6919;52.344;14.518;2022-12-29T11:29:53;12.70;99.90
13694;DHT22;6919;52.344;14.518;2022-12-29T11:32:23;12.70;99.90
13694;DHT22;6919;52.344;14.518;2022-12-29T11:34:55;12.80;99.90
13694;DHT22;6919;52.344;14.518;2022-12-29T11:37:28;12.80;99.90
13694;DHT22;6919;52.344;14.518;2022-12-29T11:40:02;12.80;99.90
13694;DHT22;6919;52.344;14.518;2022-12-29T11:42:36;12.70;99.90
13694;DHT22;6919;52.344;14.518;2022-12-29T11:45:15;12.70;99.90
13694;DHT22;6919;52.344;14.518;2022-12-29T11:47:48;12.70;99.90
13694;DHT22;6919;52.344;14.518;2022-12-29T11:50:22;12.60;99.90
13694;DHT22;6919;52.344;14.518;2022-12-29T11:52:58;12.50;99.90
13694;DHT22;6919;52.344;14.518;2022-12-29T11:55:29;12.40;99.90
13694;DHT22;6919;52.344;14.518;2022-12-29T11:58:02;12.50;99.90
13694;DHT22;6919;52.344;14.518;2022-12-29T12:00:36;12.40;99.90
13694;DHT22;6919;52.344;14.518;2022-12-29T12:03:11;12.40;99.90
13694;DHT22;6919;52.344;14.518;2022-12-29T12:05:47;12.40;99.90
13694;DHT22;6919;52.344;14.518;2022-12-29T12:08:26;12.50;99.90
13694;DHT22;6919;52.344;14.518;2022-12-29T12:11:06;12.50;99.90
13694;DHT22;6919;52.344;14.518;2022-12-29T12:13:42;12.70;99.90
13694;DHT22;6919;52.344;14.518;2022-12-29T12:16:19;12.60;99.90
13694;DHT22;6919;52.344;14.518;2022-12-29T12:18:54;12.60;99.90
13694;DHT22;6919;52.344;14.518;2022-12-29T12:21:29;12.60;99.90
13694;DHT22;6919;52.344;14.518;2022-12-29T12:24:31;12.70;99.90
13694;DHT22;6919;52.344;14.518;2022-12-29T12:27:12;12.70;99.90
13694;DHT22;6919;52.344;14.518;2022-12-29T12:29:52;12.70;99.90
13694;DHT22;6919;52.344;14.518;2022-12-29T12:32:36;12.70;99.90
13694;DHT22;6919;52.344;14.518;2022-12-29T12:35:14;12.70;99.90
13694;DHT22;6919;52.344;14.518;2022-12-29T12:38:00;12.70;99.90
13694;DHT22;6919;52.344;14.518;2022-12-29T12:40:53;12.70;99.90
13694;DHT22;6919;52.344;14.518;2022-12-29T12:43:40;12.80;99.90
13694;DHT22;6919;52.344;14.518;2022-12-29T12:46:25;12.70;99.90
13694;DHT22;6919;52.344;14.518;2022-12-29T12:49:35;12.70;99.90
13694;DHT22;6919;52.344;14.518;2022-12-29T12:52:27;12.80;99.90
13694;DHT22;6919;52.344;14.518;2022-12-29T12:55:12;12.70;99.90
13694;DHT22;6919;52.344;14.518;2022-12-29T12:58:02;12.70;99.90
13694;DHT22;6919;52.344;14.518;2022-12-29T13:01:00;12.70;99.90
13694;DHT22;6919;52.344;14.518;2022-12-29T13:03:47;12.70;99.90
13694;DHT22;6919;52.344;14.518;2022-12-29T13:06:39;12.80;99.90
13694;DHT22;6919;52.344;14.518;2022-12-29T13:09:27;12.70;99.90
13694;DHT22;6919;52.344;14.518;2022-12-29T13:12:14;12.70;99.90
13694;DHT22;6919;52.344;14.518;2022-12-29T13:15:03;12.70;99.90
13694;DHT22;6919;52.344;14.518;2022-12-29T13:17:49;12.70;99.90
13694;DHT22;6919;52.344;14.518;2022-12-29T13:20:29;12.60;99.90
13694;DHT22;6919;52.344;14.518;2022-12-29T13:23:15;12.60;99.90
13694;DHT22;6919;52.344;14.518;2022-12-29T13:25:53;12.60;99.90
13694;DHT22;6919;52.344;14.518;2022-12-29T13:28:31;12.70;99.90
13694;DHT22;6919;52.344;14.518;2022-12-29T13:31:12;12.70;99.90
13694;DHT22;6919;52.344;14.518;2022-12-29T13:33:53;12.70;99.90
13694;DHT22;6919;52.344;14.518;2022-12-29T13:36:33;12.70;99.90
13694;DHT22;6919;52.344;14.518;2022-12-29T13:39:13;12.70;99.90
13694;DHT22;6919;52.344;14.518;2022-12-29T13:41:49;12.70;99.90
13694;DHT22;6919;52.344;14.518;2022-12-29T13:44:22;12.60;99.90
13694;DHT22;6919;52.344;14.518;2022-12-29T13:47:01;12.60;99.90
13694;DHT22;6919;52.344;14.518;2022-12-29T13:49:39;12.50;99.90
13694;DHT22;6919;52.344;14.518;2022-12-29T13:52:12;12.50;99.90
13694;DHT22;6919;52.344;14.518;2022-12-29T13:54:57;12.40;99.90
13694;DHT22;6919;52.344;14.518;2022-12-29T13:57:39;12.40;99.90
13694;DHT22;6919;52.344;14.518;2022-12-29T14:00:16;12.40;99.90
13694;DHT22;6919;52.344;14.518;2022-12-29T14:03:01;12.40;99.90
13694;DHT22;6919;52.344;14.518;2022-12-29T14:06:05;12.30;99.90
13694;DHT22;6919;52.344;14.518;2022-12-29T14:08:42;12.30;99.90
13694;DHT22;6919;52.344;14.518;2022-12-29T14:11:15;12.20;99.90
13694;DHT22;6919;52.344;14.518;2022-12-29T14:13:46;12.20;99.90
13694;DHT22;6919;52.344;14.518;2022-12-29T14:16:26;12.20;99.90
13694;DHT22;6919;52.344;14.518;2022-12-29T14:19:04;12.20;99.90
13694;DHT22;6919;52.344;14.518;2022-12-29T14:21:39;12.20;99.90
13694;DHT22;6919;52.344;14.518;2022-12-29T14:24:38;12.20;99.90
13694;DHT22;6919;52.344;14.518;2022-12-29T14:27:52;12.10;99.90
13694;DHT22;6919;52.344;14.518;2022-12-29T14:33:28;12.10;99.90
13694;DHT22;6919;52.344;14.518;2022-12-29T14:36:18;11.90;99.90
13694;DHT22;6919;52.344;14.518;2022-12-29T14:38:48;11.90;99.90
13694;DHT22;6919;52.344;14.518;2022-12-29T14:41:29;11.80;99.90
13694;DHT22;6919;52.344;14.518;2022-12-29T14:44:14;11.80;99.90
13694;DHT22;6919;52.344;14.518;2022-12-29T14:46:55;11.70;99.90
13694;DHT22;6919;52.344;14.518;2022-12-29T14:49:28;11.60;99.90
13694;DHT22;6919;52.344;14.518;2022-12-29T14:52:12;11.60;99.90
13694;DHT22;6919;52.344;14.518;2022-12-29T14:54:50;11.50;99.90
13694;DHT22;6919;52.344;14.518;2022-12-29T14:57:25;11.50;99.90
13694;DHT22;6919;52.344;14.518;2022-12-29T15:00:07;11.60;99.90
13694;DHT22;6919;52.344;14.518;2022-12-29T15:02:46;11.50;99.90
13694;DHT22;6919;52.344;14.518;2022-12-29T15:05:26;11.40;99.90
13694;DHT22;6919;52.344;14.518;2022-12-29T15:07:58;11.50;99.90
13694;DHT22;6919;52.344;14.518;2022-12-29T15:10:35;11.50;99.90
13694;DHT22;6919;52.344;14.518;2022-12-29T15:13:15;11.50;99.90
13694;DHT22;6919;52.344;14.518;2022-12-29T15:15:46;11.40;99.90
13694;DHT22;6919;52.344;14.518;2022-12-29T15:18:22;11.40;99.90
13694;DHT22;6919;52.344;14.518;2022-12-29T15:20:55;11.40;99.90
13694;DHT22;6919;52.344;14.518;2022-12-29T15:23:26;11.30;99.90
13694;DHT22;6919;52.344;14.518;2022-12-29T15:25:58;11.30;99.90
13694;DHT22;6919;52.344;14.518;2022-12-29T15:28:37;11.30;99.90
13694;DHT22;6919;52.344;14.518;2022-12-29T15:31:12;11.30;99.90
13694;DHT22;6919;52.344;14.518;2022-12-29T15:33:44;11.20;99.90
13694;DHT22;6919;52.344;14.518;2022-12-29T15:36:19;11.30;99.90
13694;DHT22;6919;52.344;14.518;2022-12-29T15:38:50;11.30;99.90
13694;DHT22;6919;52.344;14.518;2022-12-29T15:41:26;11.30;99.90
13694;DHT22;6919;52.344;14.518;2022-12-29T15:44:23;11.20;99.90
13694;DHT22;6919;52.344;14.518;2022-12-29T15:46:55;11.20;99.90
13694;DHT22;6919;52.344;14.518;2022-12-29T15:49:24;11.20;99.90
13694;DHT22;6919;52.344;14.518;2022-12-29T15:51:58;11.20;99.90
13694;DHT22;6919;52.344;14.518;2022-12-29T15:54:32;11.20;99.90
13694;DHT22;6919;52.344;14.518;2022-12-29T15:57:01;11.20;99.90
13694;DHT22;6919;52.344;14.518;2022-12-29T15:59:31;11.10;99.90
13694;DHT22;6919;52.344;14.518;2022-12-29T16:02:03;11.20;99.90
13694;DHT22;6919;52.344;14.518;2022-12-29T16:04:39;11.30;99.90
13694;DHT22;6919;52.344;14.518;2022-12-29T16:07:29;11.20;99.90
13694;DHT22;6919;52.344;14.518;2022-12-29T16:10:25;11.30;99.90
13694;DHT22;6919;52.344;14.518;2022-12-29T16:13:05;11.30;99.90
13694;DHT22;6919;52.344;14.518;2022-12-29T16:15:46;11.40;99.90
13694;DHT22;6919;52.344;14.518;2022-12-29T16:18:23;11.40;99.90
13694;DHT22;6919;52.344;14.518;2022-12-29T16:20:54;11.60;99.90
13694;DHT22;6919;52.344;14.518;2022-12-29T16:23:25;11.50;99.90
13694;DHT22;6919;52.344;14.518;2022-12-29T16:25:56;11.60;99.90
13694;DHT22;6919;52.344;14.518;2022-12-29T16:28:36;11.50;99.90
13694;DHT22;6919;52.344;14.518;2022-12-29T16:31:19;11.60;99.90
13694;DHT22;6919;52.344;14.518;2022-12-29T16:33:52;11.60;99.90